Quartz Hill, California
Current Conditions -  °F | °C
As of 10:53 PM on Wednesday 26 Nov 2014 (Local Time) from KPMD Reporting Station
Clear Clear  
Wind Chill: 44°   Ceiling: Unl
Heat Index: 44°   Visibility: 10mi
Dew Point: 13°   Wind: 0mph
Humidity: 28%   Direction: NA
Pressure: 30.32"   Gusts: NA
Location:  34.5959°N, 118.235°W
Report Text: KPMD 270653Z AUTO 00000KT 10SM CLR 07/M11 A3032 RMK AO2 SLP261 T00671106
Loading
Personal Weather Stations






























Interactive Weather Map New forecast layout! Learn more

10-Day Weather Forecast

Advertisements
Track Severe Weather on mobile